sensor_id;sensor_type;location;lat;lon;timestamp;temperature;humidity
52127;DHT22;38120;53.176;6.614;2024-03-02T00:02:24;6.90;99.90
52127;DHT22;38120;53.176;6.614;2024-03-02T00:04:51;6.90;99.90
52127;DHT22;38120;53.176;6.614;2024-03-02T00:07:17;6.90;99.90
52127;DHT22;38120;53.176;6.614;2024-03-02T00:09:42;6.80;99.90
52127;DHT22;38120;53.176;6.614;2024-03-02T00:12:10;6.90;99.90
52127;DHT22;38120;53.176;6.614;2024-03-02T00:14:37;6.80;99.90
52127;DHT22;38120;53.176;6.614;2024-03-02T00:17:03;6.80;99.90
52127;DHT22;38120;53.176;6.614;2024-03-02T00:19:29;6.80;99.90
52127;DHT22;38120;53.176;6.614;2024-03-02T00:21:54;6.90;99.90
52127;DHT22;38120;53.176;6.614;2024-03-02T00:24:24;6.80;99.90
52127;DHT22;38120;53.176;6.614;2024-03-02T00:26:51;6.90;99.90
52127;DHT22;38120;53.176;6.614;2024-03-02T00:29:17;6.70;99.90
52127;DHT22;38120;53.176;6.614;2024-03-02T00:31:45;6.70;99.90
52127;DHT22;38120;53.176;6.614;2024-03-02T00:34:12;6.70;99.90
52127;DHT22;38120;53.176;6.614;2024-03-02T00:36:39;6.80;99.90
52127;DHT22;38120;53.176;6.614;2024-03-02T00:39:06;6.80;99.90
52127;DHT22;38120;53.176;6.614;2024-03-02T00:41:33;6.80;99.90
52127;DHT22;38120;53.176;6.614;2024-03-02T00:44:04;6.90;99.90
52127;DHT22;38120;53.176;6.614;2024-03-02T00:46:41;6.90;99.90
52127;DHT22;38120;53.176;6.614;2024-03-02T00:49:23;6.90;99.90
52127;DHT22;38120;53.176;6.614;2024-03-02T00:51:53;7.00;99.90
52127;DHT22;38120;53.176;6.614;2024-03-02T00:54:25;7.00;99.90
52127;DHT22;38120;53.176;6.614;2024-03-02T00:56:52;7.00;99.90
52127;DHT22;38120;53.176;6.614;2024-03-02T00:59:18;7.00;99.90
52127;DHT22;38120;53.176;6.614;2024-03-02T01:01:43;7.00;99.90
52127;DHT22;38120;53.176;6.614;2024-03-02T01:04:09;7.00;99.90
52127;DHT22;38120;53.176;6.614;2024-03-02T01:06:35;7.00;99.90
52127;DHT22;38120;53.176;6.614;2024-03-02T01:09:01;7.00;99.90
52127;DHT22;38120;53.176;6.614;2024-03-02T01:11:28;7.00;99.90
52127;DHT22;38120;53.176;6.614;2024-03-02T01:13:53;7.00;99.90
52127;DHT22;38120;53.176;6.614;2024-03-02T01:16:19;7.00;99.90
52127;DHT22;38120;53.176;6.614;2024-03-02T01:18:45;7.50;99.90
52127;DHT22;38120;53.176;6.614;2024-03-02T01:21:11;7.00;99.90
52127;DHT22;38120;53.176;6.614;2024-03-02T01:23:37;7.00;99.90
52127;DHT22;38120;53.176;6.614;2024-03-02T01:26:03;7.10;99.90
52127;DHT22;38120;53.176;6.614;2024-03-02T01:28:29;7.00;99.90
52127;DHT22;38120;53.176;6.614;2024-03-02T01:30:54;7.00;99.90
52127;DHT22;38120;53.176;6.614;2024-03-02T01:33:20;7.00;99.90
52127;DHT22;38120;53.176;6.614;2024-03-02T01:35:47;7.00;99.90
52127;DHT22;38120;53.176;6.614;2024-03-02T01:38:13;7.40;99.90
52127;DHT22;38120;53.176;6.614;2024-03-02T01:40:39;7.10;99.90
52127;DHT22;38120;53.176;6.614;2024-03-02T01:43:05;7.20;99.90
52127;DHT22;38120;53.176;6.614;2024-03-02T01:45:32;7.10;99.90
52127;DHT22;38120;53.176;6.614;2024-03-02T01:47:58;7.10;99.90
52127;DHT22;38120;53.176;6.614;2024-03-02T01:50:33;7.40;99.90
52127;DHT22;38120;53.176;6.614;2024-03-02T01:53:00;7.20;99.90
52127;DHT22;38120;53.176;6.614;2024-03-02T01:55:26;7.20;99.90
52127;DHT22;38120;53.176;6.614;2024-03-02T01:57:53;7.20;99.90
52127;DHT22;38120;53.176;6.614;2024-03-02T02:00:20;7.20;99.90
52127;DHT22;38120;53.176;6.614;2024-03-02T02:02:47;7.20;99.90
52127;DHT22;38120;53.176;6.614;2024-03-02T02:05:13;7.20;99.90
52127;DHT22;38120;53.176;6.614;2024-03-02T02:07:43;7.20;99.90
52127;DHT22;38120;53.176;6.614;2024-03-02T02:10:12;7.20;99.90
52127;DHT22;38120;53.176;6.614;2024-03-02T02:12:38;7.20;99.90
52127;DHT22;38120;53.176;6.614;2024-03-02T02:15:24;7.20;99.90
52127;DHT22;38120;53.176;6.614;2024-03-02T02:17:51;7.20;99.90
52127;DHT22;38120;53.176;6.614;2024-03-02T02:20:17;7.20;99.90
52127;DHT22;38120;53.176;6.614;2024-03-02T02:22:57;7.20;99.90
52127;DHT22;38120;53.176;6.614;2024-03-02T02:25:23;7.30;99.90
52127;DHT22;38120;53.176;6.614;2024-03-02T02:27:49;7.30;99.90
52127;DHT22;38120;53.176;6.614;2024-03-02T02:30:22;7.30;99.90
52127;DHT22;38120;53.176;6.614;2024-03-02T02:32:48;7.30;99.90
52127;DHT22;38120;53.176;6.614;2024-03-02T02:35:14;7.30;99.90
52127;DHT22;38120;53.176;6.614;2024-03-02T02:37:40;7.20;99.90
52127;DHT22;38120;53.176;6.614;2024-03-02T02:40:06;7.30;99.90
52127;DHT22;38120;53.176;6.614;2024-03-02T02:42:32;7.30;99.90
52127;DHT22;38120;53.176;6.614;2024-03-02T02:44:58;7.30;99.90
52127;DHT22;38120;53.176;6.614;2024-03-02T02:47:23;7.30;99.90
52127;DHT22;38120;53.176;6.614;2024-03-02T02:49:49;7.30;99.90
52127;DHT22;38120;53.176;6.614;2024-03-02T02:52:15;7.70;99.90
52127;DHT22;38120;53.176;6.614;2024-03-02T02:54:40;7.70;99.90
52127;DHT22;38120;53.176;6.614;2024-03-02T02:57:06;7.40;99.90
52127;DHT22;38120;53.176;6.614;2024-03-02T02:59:32;7.40;99.90
52127;DHT22;38120;53.176;6.614;2024-03-02T03:01:57;7.40;99.90
52127;DHT22;38120;53.176;6.614;2024-03-02T03:04:23;7.50;99.90
52127;DHT22;38120;53.176;6.614;2024-03-02T03:06:49;7.50;99.90
52127;DHT22;38120;53.176;6.614;2024-03-02T03:09:14;7.60;99.90
52127;DHT22;38120;53.176;6.614;2024-03-02T03:11:40;7.60;99.90
52127;DHT22;38120;53.176;6.614;2024-03-02T03:14:05;7.60;99.90
52127;DHT22;38120;53.176;6.614;2024-03-02T03:16:31;7.60;99.90
52127;DHT22;38120;53.176;6.614;2024-03-02T03:18:57;7.70;99.90
52127;DHT22;38120;53.176;6.614;2024-03-02T03:21:22;7.70;99.90
52127;DHT22;38120;53.176;6.614;2024-03-02T03:23:48;7.70;99.90
52127;DHT22;38120;53.176;6.614;2024-03-02T03:26:14;7.80;99.90
52127;DHT22;38120;53.176;6.614;2024-03-02T03:28:40;7.90;99.90
52127;DHT22;38120;53.176;6.614;2024-03-02T03:31:06;8.00;99.90
52127;DHT22;38120;53.176;6.614;2024-03-02T03:33:32;8.00;99.90
52127;DHT22;38120;53.176;6.614;2024-03-02T03:35:58;8.00;99.90
52127;DHT22;38120;53.176;6.614;2024-03-02T03:38:23;8.00;99.90
52127;DHT22;38120;53.176;6.614;2024-03-02T03:40:49;8.00;99.90
52127;DHT22;38120;53.176;6.614;2024-03-02T03:43:15;8.00;99.90
52127;DHT22;38120;53.176;6.614;2024-03-02T03:45:40;8.00;99.90
52127;DHT22;38120;53.176;6.614;2024-03-02T03:48:07;7.90;99.90
52127;DHT22;38120;53.176;6.614;2024-03-02T03:50:32;7.90;99.90
52127;DHT22;38120;53.176;6.614;2024-03-02T03:52:58;7.90;99.90
52127;DHT22;38120;53.176;6.614;2024-03-02T03:55:24;7.80;99.90
52127;DHT22;38120;53.176;6.614;2024-03-02T03:57:50;7.80;99.90
52127;DHT22;38120;53.176;6.614;2024-03-02T04:00:15;7.80;99.90
52127;DHT22;38120;53.176;6.614;2024-03-02T04:02:41;7.70;99.90
52127;DHT22;38120;53.176;6.614;2024-03-02T04:05:07;7.60;99.90
52127;DHT22;38120;53.176;6.614;2024-03-02T04:07:37;7.60;99.90
52127;DHT22;38120;53.176;6.614;2024-03-02T04:10:10;7.60;99.90
52127;DHT22;38120;53.176;6.614;2024-03-02T04:12:38;7.60;99.90
52127;DHT22;38120;53.176;6.614;2024-03-02T04:15:07;7.60;99.90
52127;DHT22;38120;53.176;6.614;2024-03-02T04:17:33;7.60;99.90
52127;DHT22;38120;53.176;6.614;2024-03-02T04:20:00;7.50;99.90
52127;DHT22;38120;53.176;6.614;2024-03-02T04:22:27;7.50;99.90
52127;DHT22;38120;53.176;6.614;2024-03-02T04:24:52;7.50;99.90
52127;DHT22;38120;53.176;6.614;2024-03-02T04:27:18;7.50;99.90
52127;DHT22;38120;53.176;6.614;2024-03-02T04:29:44;7.50;99.90
52127;DHT22;38120;53.176;6.614;2024-03-02T04:32:10;7.50;99.90
52127;DHT22;38120;53.176;6.614;2024-03-02T04:34:35;7.60;99.90
52127;DHT22;38120;53.176;6.614;2024-03-02T04:37:01;7.60;99.90
52127;DHT22;38120;53.176;6.614;2024-03-02T04:39:27;7.60;99.90
52127;DHT22;38120;53.176;6.614;2024-03-02T04:41:52;7.60;99.90
52127;DHT22;38120;53.176;6.614;2024-03-02T04:44:18;7.60;99.90
52127;DHT22;38120;53.176;6.614;2024-03-02T04:46:44;7.60;99.90
52127;DHT22;38120;53.176;6.614;2024-03-02T04:49:09;7.70;99.90
52127;DHT22;38120;53.176;6.614;2024-03-02T04:51:35;8.00;99.90
52127;DHT22;38120;53.176;6.614;2024-03-02T04:54:01;7.60;99.90
52127;DHT22;38120;53.176;6.614;2024-03-02T04:56:26;7.60;99.90
52127;DHT22;38120;53.176;6.614;2024-03-02T04:58:58;7.60;99.90
52127;DHT22;38120;53.176;6.614;2024-03-02T05:01:23;7.50;99.90
52127;DHT22;38120;53.176;6.614;2024-03-02T05:03:49;7.50;99.90
52127;DHT22;38120;53.176;6.614;2024-03-02T05:06:15;7.50;99.90
52127;DHT22;38120;53.176;6.614;2024-03-02T05:08:41;7.40;99.90
52127;DHT22;38120;53.176;6.614;2024-03-02T05:11:06;7.80;99.90
52127;DHT22;38120;53.176;6.614;2024-03-02T05:14:10;7.30;99.90
52127;DHT22;38120;53.176;6.614;2024-03-02T05:16:36;7.40;99.90
52127;DHT22;38120;53.176;6.614;2024-03-02T05:19:05;7.40;99.90
52127;DHT22;38120;53.176;6.614;2024-03-02T05:21:34;7.40;99.90
52127;DHT22;38120;53.176;6.614;2024-03-02T05:24:00;7.50;99.90
52127;DHT22;38120;53.176;6.614;2024-03-02T05:26:25;7.80;99.90
52127;DHT22;38120;53.176;6.614;2024-03-02T05:28:51;7.50;99.90
52127;DHT22;38120;53.176;6.614;2024-03-02T05:31:17;7.40;99.90
52127;DHT22;38120;53.176;6.614;2024-03-02T05:33:43;7.40;99.90
52127;DHT22;38120;53.176;6.614;2024-03-02T05:36:09;7.30;99.90
52127;DHT22;38120;53.176;6.614;2024-03-02T05:38:35;7.30;99.90
52127;DHT22;38120;53.176;6.614;2024-03-02T05:41:01;7.40;99.90
52127;DHT22;38120;53.176;6.614;2024-03-02T05:43:27;7.30;99.90
52127;DHT22;38120;53.176;6.614;2024-03-02T05:45:52;7.40;99.90
52127;DHT22;38120;53.176;6.614;2024-03-02T05:48:18;7.40;99.90
52127;DHT22;38120;53.176;6.614;2024-03-02T05:50:44;7.40;99.90
52127;DHT22;38120;53.176;6.614;2024-03-02T05:53:09;7.40;99.90
52127;DHT22;38120;53.176;6.614;2024-03-02T05:55:35;7.40;99.90
52127;DHT22;38120;53.176;6.614;2024-03-02T05:58:01;7.40;99.90
52127;DHT22;38120;53.176;6.614;2024-03-02T06:00:29;7.40;99.90
52127;DHT22;38120;53.176;6.614;2024-03-02T06:02:56;7.40;99.90
52127;DHT22;38120;53.176;6.614;2024-03-02T06:05:22;7.90;99.90
52127;DHT22;38120;53.176;6.614;2024-03-02T06:07:47;7.40;99.90
52127;DHT22;38120;53.176;6.614;2024-03-02T06:10:13;7.50;99.90
52127;DHT22;38120;53.176;6.614;2024-03-02T06:12:40;7.40;99.90
52127;DHT22;38120;53.176;6.614;2024-03-02T06:15:06;7.50;99.90
52127;DHT22;38120;53.176;6.614;2024-03-02T06:17:32;7.50;99.90
52127;DHT22;38120;53.176;6.614;2024-03-02T06:19:58;7.40;99.90
52127;DHT22;38120;53.176;6.614;2024-03-02T06:22:23;7.50;99.90
52127;DHT22;38120;53.176;6.614;2024-03-02T06:24:51;7.50;99.90
52127;DHT22;38120;53.176;6.614;2024-03-02T06:27:16;7.60;99.90
52127;DHT22;38120;53.176;6.614;2024-03-02T06:29:42;7.50;99.90
52127;DHT22;38120;53.176;6.614;2024-03-02T06:32:08;7.80;99.90
52127;DHT22;38120;53.176;6.614;2024-03-02T06:34:33;7.50;99.90
52127;DHT22;38120;53.176;6.614;2024-03-02T06:37:00;7.40;99.90
52127;DHT22;38120;53.176;6.614;2024-03-02T06:39:26;7.40;99.90
52127;DHT22;38120;53.176;6.614;2024-03-02T06:41:52;7.30;99.90
52127;DHT22;38120;53.176;6.614;2024-03-02T06:44:18;7.30;99.90
52127;DHT22;38120;53.176;6.614;2024-03-02T06:46:43;7.20;99.90
52127;DHT22;38120;53.176;6.614;2024-03-02T06:49:09;8.30;99.90
52127;DHT22;38120;53.176;6.614;2024-03-02T06:51:37;7.20;99.90
52127;DHT22;38120;53.176;6.614;2024-03-02T06:54:03;7.10;99.90
52127;DHT22;38120;53.176;6.614;2024-03-02T06:56:29;7.10;99.90
52127;DHT22;38120;53.176;6.614;2024-03-02T06:58:56;7.10;99.90
52127;DHT22;38120;53.176;6.614;2024-03-02T07:01:21;7.10;99.90
52127;DHT22;38120;53.176;6.614;2024-03-02T07:03:47;7.10;99.90
52127;DHT22;38120;53.176;6.614;2024-03-02T07:06:13;7.10;99.90
52127;DHT22;38120;53.176;6.614;2024-03-02T07:08:39;7.00;99.90
52127;DHT22;38120;53.176;6.614;2024-03-02T07:11:04;7.10;99.90
52127;DHT22;38120;53.176;6.614;2024-03-02T07:13:30;7.10;99.90
52127;DHT22;38120;53.176;6.614;2024-03-02T07:15:55;7.00;99.90
52127;DHT22;38120;53.176;6.614;2024-03-02T07:18:36;7.00;99.90
52127;DHT22;38120;53.176;6.614;2024-03-02T07:21:10;7.10;99.90
52127;DHT22;38120;53.176;6.614;2024-03-02T07:23:36;7.10;99.90
52127;DHT22;38120;53.176;6.614;2024-03-02T07:26:02;7.20;99.90
52127;DHT22;38120;53.176;6.614;2024-03-02T07:28:28;7.30;99.90
52127;DHT22;38120;53.176;6.614;2024-03-02T07:31:01;7.30;99.90
52127;DHT22;38120;53.176;6.614;2024-03-02T07:33:27;7.30;99.90
52127;DHT22;38120;53.176;6.614;2024-03-02T07:35:56;7.40;99.90
52127;DHT22;38120;53.176;6.614;2024-03-02T07:38:23;7.40;99.90
52127;DHT22;38120;53.176;6.614;2024-03-02T07:40:49;7.40;99.90
52127;DHT22;38120;53.176;6.614;2024-03-02T07:43:19;8.50;99.90
52127;DHT22;38120;53.176;6.614;2024-03-02T07:45:45;7.40;99.90
52127;DHT22;38120;53.176;6.614;2024-03-02T07:48:11;7.40;99.90
52127;DHT22;38120;53.176;6.614;2024-03-02T07:50:37;7.40;99.90
52127;DHT22;38120;53.176;6.614;2024-03-02T07:53:05;7.40;99.90
52127;DHT22;38120;53.176;6.614;2024-03-02T07:55:31;7.60;99.90
52127;DHT22;38120;53.176;6.614;2024-03-02T07:57:57;7.40;99.90
52127;DHT22;38120;53.176;6.614;2024-03-02T08:00:23;7.50;99.90
52127;DHT22;38120;53.176;6.614;2024-03-02T08:02:50;7.50;99.90
52127;DHT22;38120;53.176;6.614;2024-03-02T08:05:19;7.60;99.90
52127;DHT22;38120;53.176;6.614;2024-03-02T08:07:46;7.60;99.90
52127;DHT22;38120;53.176;6.614;2024-03-02T08:10:12;7.90;99.90
52127;DHT22;38120;53.176;6.614;2024-03-02T08:12:38;7.70;99.90
52127;DHT22;38120;53.176;6.614;2024-03-02T08:15:04;7.70;99.90
52127;DHT22;38120;53.176;6.614;2024-03-02T08:17:30;7.80;99.90
52127;DHT22;38120;53.176;6.614;2024-03-02T08:19:56;7.80;99.90
52127;DHT22;38120;53.176;6.614;2024-03-02T08:22:23;7.80;99.90
52127;DHT22;38120;53.176;6.614;2024-03-02T08:24:52;7.90;99.90
52127;DHT22;38120;53.176;6.614;2024-03-02T08:27:18;8.00;99.90
52127;DHT22;38120;53.176;6.614;2024-03-02T08:29:44;8.00;99.90
52127;DHT22;38120;53.176;6.614;2024-03-02T08:32:10;8.00;99.90
52127;DHT22;38120;53.176;6.614;2024-03-02T08:34:35;8.00;99.90
52127;DHT22;38120;53.176;6.614;2024-03-02T08:37:02;8.10;99.90
52127;DHT22;38120;53.176;6.614;2024-03-02T08:39:28;8.20;99.90
52127;DHT22;38120;53.176;6.614;2024-03-02T08:41:53;8.60;99.90
52127;DHT22;38120;53.176;6.614;2024-03-02T08:44:19;8.30;99.90
52127;DHT22;38120;53.176;6.614;2024-03-02T08:46:45;8.40;99.90
52127;DHT22;38120;53.176;6.614;2024-03-02T08:49:12;8.40;99.90
52127;DHT22;38120;53.176;6.614;2024-03-02T08:51:38;8.50;99.90
52127;DHT22;38120;53.176;6.614;2024-03-02T08:54:03;8.60;99.90
52127;DHT22;38120;53.176;6.614;2024-03-02T08:56:30;8.80;99.90
52127;DHT22;38120;53.176;6.614;2024-03-02T08:58:56;8.90;99.90
52127;DHT22;38120;53.176;6.614;2024-03-02T09:01:22;8.90;99.90
52127;DHT22;38120;53.176;6.614;2024-03-02T09:03:48;8.90;99.90
52127;DHT22;38120;53.176;6.614;2024-03-02T09:06:14;8.70;99.90
52127;DHT22;38120;53.176;6.614;2024-03-02T09:08:42;8.70;99.90
52127;DHT22;38120;53.176;6.614;2024-03-02T09:11:12;8.80;99.90
52127;DHT22;38120;53.176;6.614;2024-03-02T09:13:38;8.90;99.90
52127;DHT22;38120;53.176;6.614;2024-03-02T09:16:04;8.90;99.90
52127;DHT22;38120;53.176;6.614;2024-03-02T09:18:31;8.90;99.90
52127;DHT22;38120;53.176;6.614;2024-03-02T09:20:56;9.10;99.90
52127;DHT22;38120;53.176;6.614;2024-03-02T09:23:22;9.20;99.90
52127;DHT22;38120;53.176;6.614;2024-03-02T09:25:48;9.30;99.90
52127;DHT22;38120;53.176;6.614;2024-03-02T09:28:15;9.30;99.90
52127;DHT22;38120;53.176;6.614;2024-03-02T09:30:41;9.30;99.90
52127;DHT22;38120;53.176;6.614;2024-03-02T09:33:07;9.20;99.90
52127;DHT22;38120;53.176;6.614;2024-03-02T09:35:33;9.30;99.90
52127;DHT22;38120;53.176;6.614;2024-03-02T09:37:58;9.30;99.90
52127;DHT22;38120;53.176;6.614;2024-03-02T09:40:24;9.30;1.00
52127;DHT22;38120;53.176;6.614;2024-03-02T09:42:51;9.50;99.90
52127;DHT22;38120;53.176;6.614;2024-03-02T09:45:23;9.60;99.90
52127;DHT22;38120;53.176;6.614;2024-03-02T09:47:49;9.60;99.90
52127;DHT22;38120;53.176;6.614;2024-03-02T09:50:15;9.80;45.80
52127;DHT22;38120;53.176;6.614;2024-03-02T09:52:42;9.70;10.60
52127;DHT22;38120;53.176;6.614;2024-03-02T09:55:09;9.70;1.00
52127;DHT22;38120;53.176;6.614;2024-03-02T09:57:34;9.80;99.90
52127;DHT22;38120;53.176;6.614;2024-03-02T10:00:00;9.90;99.90
52127;DHT22;38120;53.176;6.614;2024-03-02T10:02:26;9.60;95.10
52127;DHT22;38120;53.176;6.614;2024-03-02T10:04:52;9.60;99.90
52127;DHT22;38120;53.176;6.614;2024-03-02T10:07:18;9.90;99.90
52127;DHT22;38120;53.176;6.614;2024-03-02T10:09:46;10.00;99.90
52127;DHT22;38120;53.176;6.614;2024-03-02T10:12:14;10.10;99.90
52127;DHT22;38120;53.176;6.614;2024-03-02T10:14:41;10.30;99.90
52127;DHT22;38120;53.176;6.614;2024-03-02T10:17:11;10.30;1.00
52127;DHT22;38120;53.176;6.614;2024-03-02T10:19:37;10.40;99.90
52127;DHT22;38120;53.176;6.614;2024-03-02T10:22:09;10.40;99.90
52127;DHT22;38120;53.176;6.614;2024-03-02T10:24:36;10.50;96.50
52127;DHT22;38120;53.176;6.614;2024-03-02T10:27:07;10.50;56.20
52127;DHT22;38120;53.176;6.614;2024-03-02T10:29:37;10.50;1.00
52127;DHT22;38120;53.176;6.614;2024-03-02T10:32:04;10.50;99.90
52127;DHT22;38120;53.176;6.614;2024-03-02T10:34:31;10.30;1.00
52127;DHT22;38120;53.176;6.614;2024-03-02T10:36:56;10.20;1.00
52127;DHT22;38120;53.176;6.614;2024-03-02T10:39:24;10.10;1.00
52127;DHT22;38120;53.176;6.614;2024-03-02T10:41:52;10.20;1.00
52127;DHT22;38120;53.176;6.614;2024-03-02T10:44:19;10.30;1.00
52127;DHT22;38120;53.176;6.614;2024-03-02T10:46:46;10.40;1.00
52127;DHT22;38120;53.176;6.614;2024-03-02T10:49:12;10.40;99.90
52127;DHT22;38120;53.176;6.614;2024-03-02T10:51:38;10.30;1.00
52127;DHT22;38120;53.176;6.614;2024-03-02T10:54:04;10.50;99.90
52127;DHT22;38120;53.176;6.614;2024-03-02T10:56:36;10.50;99.90
52127;DHT22;38120;53.176;6.614;2024-03-02T11:01:39;10.40;1.00
52127;DHT22;38120;53.176;6.614;2024-03-02T11:04:08;10.40;99.90
52127;DHT22;38120;53.176;6.614;2024-03-02T11:06:35;10.50;1.00
52127;DHT22;38120;53.176;6.614;2024-03-02T11:09:07;10.60;99.90
52127;DHT22;38120;53.176;6.614;2024-03-02T11:11:40;10.60;99.90
52127;DHT22;38120;53.176;6.614;2024-03-02T11:14:09;10.70;99.90
52127;DHT22;38120;53.176;6.614;2024-03-02T11:16:38;10.60;99.90
52127;DHT22;38120;53.176;6.614;2024-03-02T11:19:11;10.60;99.90
52127;DHT22;38120;53.176;6.614;2024-03-02T11:21:37;10.60;80.20
52127;DHT22;38120;53.176;6.614;2024-03-02T11:26:51;10.70;1.00
52127;DHT22;38120;53.176;6.614;2024-03-02T11:32:05;10.60;1.00
52127;DHT22;38120;53.176;6.614;2024-03-02T11:34:35;10.50;99.90
52127;DHT22;38120;53.176;6.614;2024-03-02T11:37:03;10.60;99.90
52127;DHT22;38120;53.176;6.614;2024-03-02T11:39:29;10.70;99.90
52127;DHT22;38120;53.176;6.614;2024-03-02T11:41:56;10.60;1.00
52127;DHT22;38120;53.176;6.614;2024-03-02T11:44:22;10.70;99.90
52127;DHT22;38120;53.176;6.614;2024-03-02T11:46:59;10.80;99.90
52127;DHT22;38120;53.176;6.614;2024-03-02T11:49:39;10.80;99.90
52127;DHT22;38120;53.176;6.614;2024-03-02T11:52:06;10.90;99.90
52127;DHT22;38120;53.176;6.614;2024-03-02T11:54:38;11.00;99.90
52127;DHT22;38120;53.176;6.614;2024-03-02T11:57:12;11.10;1.00
52127;DHT22;38120;53.176;6.614;2024-03-02T11:59:37;11.20;99.90
52127;DHT22;38120;53.176;6.614;2024-03-02T12:02:03;11.30;4.80
52127;DHT22;38120;53.176;6.614;2024-03-02T12:04:29;11.50;97.40
52127;DHT22;38120;53.176;6.614;2024-03-02T12:06:57;11.50;99.90
52127;DHT22;38120;53.176;6.614;2024-03-02T12:09:26;11.60;1.00
52127;DHT22;38120;53.176;6.614;2024-03-02T12:12:04;11.70;1.00
52127;DHT22;38120;53.176;6.614;2024-03-02T12:14:35;11.50;99.90
52127;DHT22;38120;53.176;6.614;2024-03-02T12:17:01;11.60;99.90
52127;DHT22;38120;53.176;6.614;2024-03-02T12:19:28;11.60;99.90
52127;DHT22;38120;53.176;6.614;2024-03-02T12:21:59;11.50;78.00
52127;DHT22;38120;53.176;6.614;2024-03-02T12:24:28;11.70;99.90
52127;DHT22;38120;53.176;6.614;2024-03-02T12:26:54;11.50;33.30
52127;DHT22;38120;53.176;6.614;2024-03-02T12:29:26;11.30;1.00
52127;DHT22;38120;53.176;6.614;2024-03-02T12:31:53;11.10;1.00
52127;DHT22;38120;53.176;6.614;2024-03-02T12:34:19;11.30;99.90
52127;DHT22;38120;53.176;6.614;2024-03-02T12:36:46;11.50;99.90
52127;DHT22;38120;53.176;6.614;2024-03-02T12:39:19;11.70;99.90
52127;DHT22;38120;53.176;6.614;2024-03-02T12:41:46;11.80;58.10
52127;DHT22;38120;53.176;6.614;2024-03-02T12:44:11;11.60;99.90
52127;DHT22;38120;53.176;6.614;2024-03-02T12:46:37;11.50;99.90
52127;DHT22;38120;53.176;6.614;2024-03-02T12:49:13;11.50;99.90
52127;DHT22;38120;53.176;6.614;2024-03-02T12:51:40;11.70;99.90
52127;DHT22;38120;53.176;6.614;2024-03-02T12:54:10;11.90;99.90
52127;DHT22;38120;53.176;6.614;2024-03-02T12:56:37;11.70;1.00
52127;DHT22;38120;53.176;6.614;2024-03-02T12:59:03;11.50;1.00
52127;DHT22;38120;53.176;6.614;2024-03-02T13:01:29;11.50;1.00
52127;DHT22;38120;53.176;6.614;2024-03-02T13:03:55;11.40;7.60
52127;DHT22;38120;53.176;6.614;2024-03-02T13:06:21;11.50;95.80
52127;DHT22;38120;53.176;6.614;2024-03-02T13:09:03;11.50;1.00
52127;DHT22;38120;53.176;6.614;2024-03-02T13:11:29;11.80;1.00
52127;DHT22;38120;53.176;6.614;2024-03-02T13:13:54;11.90;1.00
52127;DHT22;38120;53.176;6.614;2024-03-02T13:16:20;11.70;99.90
52127;DHT22;38120;53.176;6.614;2024-03-02T13:18:46;11.70;99.90
52127;DHT22;38120;53.176;6.614;2024-03-02T13:21:12;11.90;1.00
52127;DHT22;38120;53.176;6.614;2024-03-02T13:23:37;12.10;1.00
52127;DHT22;38120;53.176;6.614;2024-03-02T13:26:03;12.10;1.00
52127;DHT22;38120;53.176;6.614;2024-03-02T13:28:29;12.10;99.90
52127;DHT22;38120;53.176;6.614;2024-03-02T13:30:55;11.90;99.90
52127;DHT22;38120;53.176;6.614;2024-03-02T13:33:21;11.70;99.90
52127;DHT22;38120;53.176;6.614;2024-03-02T13:35:50;11.70;1.60
52127;DHT22;38120;53.176;6.614;2024-03-02T13:38:19;11.70;1.00
52127;DHT22;38120;53.176;6.614;2024-03-02T13:40:49;11.80;99.90
52127;DHT22;38120;53.176;6.614;2024-03-02T13:43:18;11.90;99.90
52127;DHT22;38120;53.176;6.614;2024-03-02T13:45:47;12.00;1.00
52127;DHT22;38120;53.176;6.614;2024-03-02T13:48:13;12.00;99.90
52127;DHT22;38120;53.176;6.614;2024-03-02T13:50:40;12.10;99.90
52127;DHT22;38120;53.176;6.614;2024-03-02T13:53:06;12.10;99.90
52127;DHT22;38120;53.176;6.614;2024-03-02T13:55:32;12.00;99.90
52127;DHT22;38120;53.176;6.614;2024-03-02T13:57:58;11.90;8.40
52127;DHT22;38120;53.176;6.614;2024-03-02T14:00:25;12.00;99.90
52127;DHT22;38120;53.176;6.614;2024-03-02T14:02:51;12.00;99.90
52127;DHT22;38120;53.176;6.614;2024-03-02T14:05:17;12.20;1.00
52127;DHT22;38120;53.176;6.614;2024-03-02T14:07:44;12.10;99.90
52127;DHT22;38120;53.176;6.614;2024-03-02T14:10:10;12.10;1.00
52127;DHT22;38120;53.176;6.614;2024-03-02T14:12:37;12.10;99.90
52127;DHT22;38120;53.176;6.614;2024-03-02T14:15:03;12.00;99.90
52127;DHT22;38120;53.176;6.614;2024-03-02T14:17:29;12.10;1.00
52127;DHT22;38120;53.176;6.614;2024-03-02T14:19:57;12.00;99.90
52127;DHT22;38120;53.176;6.614;2024-03-02T14:22:25;12.10;99.90
52127;DHT22;38120;53.176;6.614;2024-03-02T14:24:50;12.00;99.90
52127;DHT22;38120;53.176;6.614;2024-03-02T14:27:16;12.00;99.90
52127;DHT22;38120;53.176;6.614;2024-03-02T14:29:43;12.00;99.90
52127;DHT22;38120;53.176;6.614;2024-03-02T14:32:08;12.10;1.00
52127;DHT22;38120;53.176;6.614;2024-03-02T14:34:34;12.10;1.00
52127;DHT22;38120;53.176;6.614;2024-03-02T14:37:00;12.10;1.00
52127;DHT22;38120;53.176;6.614;2024-03-02T14:39:26;12.10;99.90
52127;DHT22;38120;53.176;6.614;2024-03-02T14:41:52;12.20;99.90
52127;DHT22;38120;53.176;6.614;2024-03-02T14:44:18;12.20;99.90
52127;DHT22;38120;53.176;6.614;2024-03-02T14:46:47;12.20;1.00
52127;DHT22;38120;53.176;6.614;2024-03-02T14:49:13;12.20;99.90
52127;DHT22;38120;53.176;6.614;2024-03-02T14:51:39;12.20;99.90
52127;DHT22;38120;53.176;6.614;2024-03-02T14:54:04;12.10;99.90
52127;DHT22;38120;53.176;6.614;2024-03-02T14:56:30;12.10;1.00
52127;DHT22;38120;53.176;6.614;2024-03-02T14:58:56;12.00;1.00
52127;DHT22;38120;53.176;6.614;2024-03-02T15:01:22;12.10;99.90
52127;DHT22;38120;53.176;6.614;2024-03-02T15:03:51;12.00;99.90
52127;DHT22;38120;53.176;6.614;2024-03-02T15:06:17;12.10;99.90
52127;DHT22;38120;53.176;6.614;2024-03-02T15:08:43;12.10;99.90
52127;DHT22;38120;53.176;6.614;2024-03-02T15:11:11;12.10;99.90
52127;DHT22;38120;53.176;6.614;2024-03-02T15:13:37;12.10;79.70
52127;DHT22;38120;53.176;6.614;2024-03-02T15:16:03;12.10;99.90
52127;DHT22;38120;53.176;6.614;2024-03-02T15:18:29;12.10;99.90
52127;DHT22;38120;53.176;6.614;2024-03-02T15:20:55;12.00;99.90
52127;DHT22;38120;53.176;6.614;2024-03-02T15:23:21;12.00;99.90
52127;DHT22;38120;53.176;6.614;2024-03-02T15:25:46;11.90;99.90
52127;DHT22;38120;53.176;6.614;2024-03-02T15:28:12;11.90;99.90
52127;DHT22;38120;53.176;6.614;2024-03-02T15:30:38;11.90;99.90
52127;DHT22;38120;53.176;6.614;2024-03-02T15:33:04;11.90;1.00
52127;DHT22;38120;53.176;6.614;2024-03-02T15:35:30;11.80;1.00
52127;DHT22;38120;53.176;6.614;2024-03-02T15:37:55;11.80;35.30
52127;DHT22;38120;53.176;6.614;2024-03-02T15:40:21;11.80;99.90
52127;DHT22;38120;53.176;6.614;2024-03-02T15:42:47;11.80;99.90
52127;DHT22;38120;53.176;6.614;2024-03-02T15:45:12;11.70;99.90
52127;DHT22;38120;53.176;6.614;2024-03-02T15:47:38;11.70;99.90
52127;DHT22;38120;53.176;6.614;2024-03-02T15:50:04;11.60;99.90